createdAt,value
2019-01-03T00:00:10.622Z,1024.23
2019-01-03T00:00:51.440Z,1024.25
2019-01-03T00:01:32.206Z,1024.22
2019-01-03T00:02:12.922Z,1024.26
2019-01-03T00:02:53.652Z,1024.23
2019-01-03T00:03:34.437Z,1024.22
2019-01-03T00:04:15.238Z,1024.28
2019-01-03T00:04:56.080Z,1024.28
2019-01-03T00:05:36.857Z,1024.29
2019-01-03T00:06:17.561Z,1024.3
2019-01-03T00:06:58.322Z,1024.28
2019-01-03T00:07:39.063Z,1024.28
2019-01-03T00:08:19.846Z,1024.31
2019-01-03T00:09:00.589Z,1024.28
2019-01-03T00:09:41.315Z,1024.27
2019-01-03T00:10:22.169Z,1024.29
2019-01-03T00:11:02.939Z,1024.31
2019-01-03T00:11:43.809Z,1024.31
2019-01-03T00:12:24.600Z,1024.29
2019-01-03T00:13:05.250Z,1024.34
2019-01-03T00:13:45.990Z,1024.35
2019-01-03T00:14:26.721Z,1024.36
2019-01-03T00:15:07.499Z,1024.37
2019-01-03T00:15:48.298Z,1024.38
2019-01-03T00:16:29.079Z,1024.36
2019-01-03T00:17:09.761Z,1024.37
2019-01-03T00:17:50.574Z,1024.4
2019-01-03T00:18:31.367Z,1024.44
2019-01-03T00:19:12.060Z,1024.45
2019-01-03T00:19:52.834Z,1024.43
2019-01-03T00:20:33.545Z,1024.44
2019-01-03T00:21:14.355Z,1024.47
2019-01-03T00:21:55.110Z,1024.48
2019-01-03T00:22:36.040Z,1024.5
2019-01-03T00:23:16.812Z,1024.49
2019-01-03T00:23:57.609Z,1024.52
2019-01-03T00:24:38.306Z,1024.48
2019-01-03T00:25:19.032Z,1024.46
2019-01-03T00:25:59.833Z,1024.48
2019-01-03T00:26:40.616Z,1024.47
2019-01-03T00:27:21.423Z,1024.48
2019-01-03T00:28:02.327Z,1024.49
2019-01-03T00:28:43.190Z,1024.47
2019-01-03T00:29:24.010Z,1024.47
2019-01-03T00:30:04.805Z,1024.47
2019-01-03T00:30:45.639Z,1024.52
2019-01-03T00:31:26.437Z,1024.5
2019-01-03T00:32:07.197Z,1024.54
2019-01-03T00:32:47.952Z,1024.58
2019-01-03T00:33:29.569Z,1024.56
2019-01-03T00:34:10.346Z,1024.56
2019-01-03T00:34:51.202Z,1024.58
2019-01-03T00:35:31.964Z,1024.61
2019-01-03T00:36:12.762Z,1024.61
2019-01-03T00:36:53.539Z,1024.6
2019-01-03T00:37:34.401Z,1024.59
2019-01-03T00:38:15.210Z,1024.59
2019-01-03T00:38:56.016Z,1024.64
2019-01-03T00:39:36.737Z,1024.64
2019-01-03T00:40:17.600Z,1024.63
2019-01-03T00:40:58.438Z,1024.61
2019-01-03T00:41:39.275Z,1024.62
2019-01-03T00:42:20.058Z,1024.62
2019-01-03T00:43:00.868Z,1024.66
2019-01-03T00:43:41.621Z,1024.64
2019-01-03T00:44:22.570Z,1024.64
2019-01-03T00:45:03.352Z,1024.68
2019-01-03T00:45:44.074Z,1024.66
2019-01-03T00:46:24.833Z,1024.65
2019-01-03T00:47:05.584Z,1024.64
2019-01-03T00:47:46.489Z,1024.65
2019-01-03T00:48:27.280Z,1024.64
2019-01-03T00:49:08.036Z,1024.62
2019-01-03T00:49:48.875Z,1024.65
2019-01-03T00:50:29.703Z,1024.67
2019-01-03T00:51:10.635Z,1024.67
2019-01-03T00:51:51.452Z,1024.7
2019-01-03T00:52:32.198Z,1024.66
2019-01-03T00:53:13.012Z,1024.72
2019-01-03T00:53:53.861Z,1024.73
2019-01-03T00:54:34.641Z,1024.74
2019-01-03T00:55:15.365Z,1024.72
2019-01-03T00:55:56.124Z,1024.69
2019-01-03T00:56:36.955Z,1024.68
2019-01-03T00:57:17.870Z,1024.7
2019-01-03T00:57:58.637Z,1024.66
2019-01-03T00:58:39.442Z,1024.72
2019-01-03T00:59:20.244Z,1024.69
2019-01-03T01:00:00.987Z,1024.69
2019-01-03T01:00:41.835Z,1024.69
2019-01-03T01:01:22.624Z,1024.69
2019-01-03T01:02:03.355Z,1024.67
2019-01-03T01:02:44.171Z,1024.68
2019-01-03T01:03:24.931Z,1024.72
2019-01-03T01:04:05.793Z,1024.69
2019-01-03T01:04:46.448Z,1024.71
2019-01-03T01:05:27.181Z,1024.69
2019-01-03T01:06:08.073Z,1024.73
2019-01-03T01:06:48.821Z,1024.69
2019-01-03T01:07:29.605Z,1024.72
2019-01-03T01:08:10.321Z,1024.69
2019-01-03T01:08:51.081Z,1024.72
2019-01-03T01:09:31.850Z,1024.7
2019-01-03T01:10:12.600Z,1024.73
2019-01-03T01:10:53.316Z,1024.73
2019-01-03T01:11:34.124Z,1024.77
2019-01-03T01:12:14.930Z,1024.72
2019-01-03T01:12:55.741Z,1024.74
2019-01-03T01:13:36.506Z,1024.77
2019-01-03T01:14:17.272Z,1024.73
2019-01-03T01:14:57.961Z,1024.72
2019-01-03T01:15:38.803Z,1024.72
2019-01-03T01:16:19.670Z,1024.7
2019-01-03T01:17:00.515Z,1024.68
2019-01-03T01:17:41.238Z,1024.67
2019-01-03T01:18:21.989Z,1024.68
2019-01-03T01:19:02.837Z,1024.66
2019-01-03T01:19:43.605Z,1024.69
2019-01-03T01:20:24.344Z,1024.72
2019-01-03T01:21:05.133Z,1024.72
2019-01-03T01:21:45.916Z,1024.74
2019-01-03T01:22:26.779Z,1024.76
2019-01-03T01:23:07.538Z,1024.7
2019-01-03T01:23:48.380Z,1024.75
2019-01-03T01:24:29.240Z,1024.72
2019-01-03T01:25:09.933Z,1024.77
2019-01-03T01:25:50.669Z,1024.78
2019-01-03T01:26:31.477Z,1024.79
2019-01-03T01:27:12.243Z,1024.75
2019-01-03T01:27:53.058Z,1024.79
2019-01-03T01:28:33.813Z,1024.82
2019-01-03T01:29:14.728Z,1024.78
2019-01-03T01:29:55.698Z,1024.83
2019-01-03T01:30:36.463Z,1024.83
2019-01-03T01:31:17.149Z,1024.87
2019-01-03T01:31:57.894Z,1024.91
2019-01-03T01:32:38.600Z,1024.9
2019-01-03T01:33:19.440Z,1024.9
2019-01-03T01:34:00.191Z,1024.89
2019-01-03T01:34:41.019Z,1024.91
2019-01-03T01:35:21.852Z,1024.89
2019-01-03T01:36:02.599Z,1024.93
2019-01-03T01:36:43.562Z,1024.93
2019-01-03T01:37:24.284Z,1024.95
2019-01-03T01:38:05.027Z,1024.94
2019-01-03T01:42:10.481Z,1025.05
2019-01-03T01:42:51.285Z,1025.07
2019-01-03T01:43:32.096Z,1025.06
2019-01-03T01:44:12.877Z,1025.05
2019-01-03T01:44:53.680Z,1025.03
2019-01-03T01:45:34.580Z,1025.04
2019-01-03T01:46:15.363Z,1025.01
2019-01-03T01:46:56.116Z,1025.02
2019-01-03T01:47:36.931Z,1025.02
2019-01-03T01:48:17.711Z,1025.04
2019-01-03T01:48:58.557Z,1024.99
2019-01-03T01:49:39.277Z,1025.04
2019-01-03T01:50:20.046Z,1024.99
2019-01-03T01:51:00.900Z,1025.02
2019-01-03T01:51:42.158Z,1025
2019-01-03T01:52:22.971Z,1025.02
2019-01-03T01:53:03.659Z,1025.06
2019-01-03T01:53:44.400Z,1025.03
2019-01-03T01:54:25.174Z,1025.06
2019-01-03T01:55:05.995Z,1025.01
2019-01-03T01:55:46.754Z,1025.01
2019-01-03T01:56:27.561Z,1025.02
2019-01-03T01:57:08.315Z,1025.01
2019-01-03T01:57:49.031Z,1024.98
2019-01-03T01:58:29.848Z,1024.99
2019-01-03T01:59:10.620Z,1025
2019-01-03T01:59:51.312Z,1025.02
2019-01-03T02:00:32.038Z,1025
2019-01-03T02:01:12.784Z,1025.02
2019-01-03T02:01:53.631Z,1025.06
2019-01-03T02:02:34.455Z,1025.11
2019-01-03T02:03:15.176Z,1025.13
2019-01-03T02:03:56.078Z,1025.14
2019-01-03T02:04:36.840Z,1025.16
2019-01-03T02:05:17.698Z,1025.11
2019-01-03T02:05:58.604Z,1025.11
2019-01-03T02:06:39.324Z,1025.11
2019-01-03T02:07:20.094Z,1025.14
2019-01-03T02:08:00.817Z,1025.1
2019-01-03T02:08:41.558Z,1025.11
2019-01-03T02:09:22.289Z,1025.08
2019-01-03T02:10:03.045Z,1025.12
2019-01-03T02:10:44.117Z,1025.12
2019-01-03T02:11:25.043Z,1025.16
2019-01-03T02:12:05.848Z,1025.13
2019-01-03T02:12:46.629Z,1025.16
2019-01-03T02:13:27.482Z,1025.17
2019-01-03T02:14:08.300Z,1025.14
2019-01-03T02:14:49.153Z,1025.14
2019-01-03T02:15:29.961Z,1025.14
2019-01-03T02:16:10.740Z,1025.15
2019-01-03T02:16:51.468Z,1025.16
2019-01-03T02:17:32.229Z,1025.17
2019-01-03T02:18:13.025Z,1025.19
2019-01-03T02:18:53.783Z,1025.2
2019-01-03T02:19:34.477Z,1025.22
2019-01-03T02:20:15.294Z,1025.21
2019-01-03T02:20:56.145Z,1025.21
2019-01-03T02:21:36.963Z,1025.25
2019-01-03T02:22:17.832Z,1025.26
2019-01-03T02:22:58.502Z,1025.26
2019-01-03T02:23:39.357Z,1025.23
2019-01-03T02:24:20.246Z,1025.28
2019-01-03T02:25:01.177Z,1025.26
2019-01-03T02:25:42.015Z,1025.24
2019-01-03T02:26:22.795Z,1025.22
2019-01-03T02:27:03.614Z,1025.24
2019-01-03T02:27:44.419Z,1025.28
2019-01-03T02:28:25.185Z,1025.23
2019-01-03T02:29:06.023Z,1025.24
2019-01-03T02:29:46.828Z,1025.21
2019-01-03T02:30:27.680Z,1025.23
2019-01-03T02:31:08.420Z,1025.24
2019-01-03T02:31:49.140Z,1025.22
2019-01-03T02:32:29.869Z,1025.21
2019-01-03T02:33:10.616Z,1025.21
2019-01-03T02:33:51.490Z,1025.17
2019-01-03T02:34:32.340Z,1025.21
2019-01-03T02:35:13.287Z,1025.22
2019-01-03T02:35:54.107Z,1025.16
2019-01-03T02:36:34.886Z,1025.18
2019-01-03T02:37:15.709Z,1025.17
2019-01-03T02:37:56.463Z,1025.15
2019-01-03T02:38:37.204Z,1025.21
2019-01-03T02:39:18.018Z,1025.16
2019-01-03T02:39:58.917Z,1025.17
2019-01-03T02:40:39.778Z,1025.18
2019-01-03T02:41:20.597Z,1025.2
2019-01-03T02:42:01.397Z,1025.17
2019-01-03T02:42:42.209Z,1025.16
2019-01-03T02:43:22.916Z,1025.17
2019-01-03T02:44:03.776Z,1025.15
2019-01-03T02:44:44.565Z,1025.17
2019-01-03T02:45:25.415Z,1025.16
2019-01-03T02:46:06.176Z,1025.13
2019-01-03T02:46:46.985Z,1025.14
2019-01-03T02:47:27.783Z,1025.18
2019-01-03T02:48:08.569Z,1025.13
2019-01-03T02:48:49.279Z,1025.17
2019-01-03T02:49:30.191Z,1025.12
2019-01-03T02:50:10.963Z,1025.11
2019-01-03T02:50:51.752Z,1025.1
2019-01-03T02:51:32.498Z,1025.07
2019-01-03T02:52:13.306Z,1025.02
2019-01-03T02:52:54.041Z,1025.06
2019-01-03T02:53:34.812Z,1025.04
2019-01-03T02:54:15.637Z,1025.06
2019-01-03T02:54:56.368Z,1025.07
2019-01-03T02:55:37.159Z,1025.07
2019-01-03T02:56:17.948Z,1025.05
2019-01-03T02:56:58.791Z,1025.06
2019-01-03T02:57:39.587Z,1025.08
2019-01-03T02:58:20.306Z,1025.1
2019-01-03T02:59:01.073Z,1025.11
2019-01-03T02:59:41.884Z,1025.13
2019-01-03T03:00:22.743Z,1025.09
2019-01-03T03:01:03.536Z,1025.12
2019-01-03T03:01:44.238Z,1025.15
2019-01-03T03:02:24.989Z,1025.09
2019-01-03T03:03:05.817Z,1025.13
2019-01-03T03:03:46.554Z,1025.11
2019-01-03T03:04:27.254Z,1025.13
2019-01-03T03:05:07.972Z,1025.11
2019-01-03T03:05:48.769Z,1025.09
2019-01-03T03:06:29.542Z,1025.11
2019-01-03T03:07:10.430Z,1025.1
2019-01-03T03:07:51.176Z,1025.11
2019-01-03T03:08:31.883Z,1025.08
2019-01-03T03:09:12.649Z,1025.1
2019-01-03T03:09:53.378Z,1025.11
2019-01-03T03:10:34.225Z,1025.1
2019-01-03T03:11:14.949Z,1025.08
2019-01-03T03:11:55.674Z,1025.09
2019-01-03T03:12:36.479Z,1025.07
2019-01-03T03:13:17.287Z,1025.06
2019-01-03T03:13:58.111Z,1025.07
2019-01-03T03:14:38.836Z,1025.1
2019-01-03T03:15:19.539Z,1025.09
2019-01-03T03:16:00.272Z,1025.09
2019-01-03T03:16:41.092Z,1025.1
2019-01-03T03:17:21.885Z,1025.09
2019-01-03T03:18:02.690Z,1025.09
2019-01-03T03:18:43.482Z,1025.07
2019-01-03T03:19:24.170Z,1025.06
2019-01-03T03:20:04.992Z,1025.07
2019-01-03T03:20:45.712Z,1025.08
2019-01-03T03:21:26.475Z,1025.03
2019-01-03T03:22:07.160Z,1025.05
2019-01-03T03:22:47.914Z,1025.02
2019-01-03T03:23:28.755Z,1025
2019-01-03T03:24:09.532Z,1025.01
2019-01-03T03:24:50.314Z,1025.02
2019-01-03T03:25:31.037Z,1025.05
2019-01-03T03:26:11.742Z,1025.05
2019-01-03T03:26:52.434Z,1025.07
2019-01-03T03:27:33.260Z,1025.03
2019-01-03T03:28:14.011Z,1025.07
2019-01-03T03:28:54.799Z,1025.03
2019-01-03T03:29:35.515Z,1025.1
2019-01-03T03:30:16.295Z,1025.07
2019-01-03T03:30:57.190Z,1025.02
2019-01-03T03:31:37.934Z,1025.04
2019-01-03T03:32:18.617Z,1025.02
2019-01-03T03:32:59.436Z,1025.03
2019-01-03T03:33:40.232Z,1025.01
2019-01-03T03:34:20.915Z,1025.02
2019-01-03T03:35:01.638Z,1025
2019-01-03T03:35:42.369Z,1025.04
2019-01-03T03:36:23.164Z,1025.01
2019-01-03T03:37:03.912Z,1024.98
2019-01-03T03:37:44.586Z,1025.02
2019-01-03T03:38:25.358Z,1024.98
2019-01-03T03:39:06.131Z,1025
2019-01-03T03:39:46.923Z,1025.02
2019-01-03T03:40:27.660Z,1025.01
2019-01-03T03:41:08.416Z,1025
2019-01-03T03:41:49.121Z,1025.02
2019-01-03T03:42:29.832Z,1025
2019-01-03T03:43:10.644Z,1024.96
2019-01-03T03:43:51.406Z,1024.95
2019-01-03T03:44:32.173Z,1024.98
2019-01-03T03:45:12.856Z,1024.97
2019-01-03T03:45:53.560Z,1024.94
2019-01-03T03:46:34.342Z,1024.94
2019-01-03T03:47:15.097Z,1024.93
2019-01-03T03:47:55.806Z,1024.92
2019-01-03T03:48:36.540Z,1024.9
2019-01-03T03:49:17.317Z,1024.91
2019-01-03T03:49:58.106Z,1024.87
2019-01-03T03:50:38.796Z,1024.83
2019-01-03T03:51:19.563Z,1024.86
2019-01-03T03:52:00.285Z,1024.84
2019-01-03T03:52:41.089Z,1024.81
2019-01-03T03:53:21.853Z,1024.86
2019-01-03T03:54:02.543Z,1024.82
2019-01-03T03:54:43.334Z,1024.83
2019-01-03T03:55:24.121Z,1024.83
2019-01-03T03:56:04.835Z,1024.83
2019-01-03T03:56:45.565Z,1024.8
2019-01-03T03:57:26.290Z,1024.82
2019-01-03T03:58:07.069Z,1024.8
2019-01-03T03:58:47.850Z,1024.83
2019-01-03T03:59:28.606Z,1024.85
2019-01-03T04:00:09.355Z,1024.86
2019-01-03T04:00:50.044Z,1024.82
2019-01-03T04:01:30.782Z,1024.82
2019-01-03T04:02:11.611Z,1024.83
2019-01-03T04:02:52.443Z,1024.87
2019-01-03T04:03:33.157Z,1024.87
2019-01-03T04:04:13.894Z,1024.88
2019-01-03T04:04:54.633Z,1024.89
2019-01-03T04:05:35.473Z,1024.9
2019-01-03T04:06:16.250Z,1024.86
2019-01-03T04:06:56.932Z,1024.87
2019-01-03T04:07:37.723Z,1024.86
2019-01-03T04:08:18.496Z,1024.9
2019-01-03T04:08:59.188Z,1024.84
2019-01-03T04:09:39.895Z,1024.87
2019-01-03T04:10:20.602Z,1024.84
2019-01-03T04:11:01.392Z,1024.83
2019-01-03T04:11:42.185Z,1024.86
2019-01-03T04:12:22.870Z,1024.85
2019-01-03T04:13:03.635Z,1024.83
2019-01-03T04:13:44.428Z,1024.84
2019-01-03T04:14:25.251Z,1024.83
2019-01-03T04:15:06.000Z,1024.81
2019-01-03T04:15:46.683Z,1024.83
2019-01-03T04:16:27.361Z,1024.78
2019-01-03T04:17:08.101Z,1024.77
2019-01-03T04:17:48.886Z,1024.79
2019-01-03T04:18:29.702Z,1024.8
2019-01-03T04:19:10.459Z,1024.78
2019-01-03T04:19:51.225Z,1024.79
2019-01-03T04:20:31.966Z,1024.77
2019-01-03T04:21:12.737Z,1024.74
2019-01-03T04:21:53.438Z,1024.8
2019-01-03T04:22:34.198Z,1024.82
2019-01-03T04:23:14.914Z,1024.83
2019-01-03T04:23:55.687Z,1024.8
2019-01-03T04:24:36.489Z,1024.8
2019-01-03T04:25:17.282Z,1024.77
2019-01-03T04:25:58.030Z,1024.8
2019-01-03T04:26:38.720Z,1024.79
2019-01-03T04:27:19.404Z,1024.8
2019-01-03T04:28:00.093Z,1024.8
2019-01-03T04:28:40.952Z,1024.78
2019-01-03T04:29:21.662Z,1024.81
2019-01-03T04:30:02.395Z,1024.8
2019-01-03T04:30:43.165Z,1024.8
2019-01-03T04:31:23.976Z,1024.83
2019-01-03T04:32:04.770Z,1024.81
2019-01-03T04:32:45.481Z,1024.83
2019-01-03T04:33:26.206Z,1024.85
2019-01-03T04:34:06.928Z,1024.83
2019-01-03T04:34:47.716Z,1024.82
2019-01-03T04:35:28.443Z,1024.85
2019-01-03T04:36:09.244Z,1024.85
2019-01-03T04:36:49.994Z,1024.83
2019-01-03T04:37:30.721Z,1024.79
2019-01-03T04:38:11.505Z,1024.77
2019-01-03T04:38:52.270Z,1024.8
2019-01-03T04:39:32.984Z,1024.82
2019-01-03T04:40:13.702Z,1024.84
2019-01-03T04:40:54.413Z,1024.85
2019-01-03T04:41:35.224Z,1024.85
2019-01-03T04:42:16.023Z,1024.79
2019-01-03T04:42:56.778Z,1024.82
2019-01-03T04:43:37.553Z,1024.82
2019-01-03T04:44:18.346Z,1024.82
2019-01-03T04:44:59.133Z,1024.81
2019-01-03T04:45:39.882Z,1024.83
2019-01-03T04:46:20.661Z,1024.79
2019-01-03T04:47:01.504Z,1024.82
2019-01-03T04:47:42.266Z,1024.77
2019-01-03T04:48:22.977Z,1024.77
2019-01-03T04:49:03.696Z,1024.76
2019-01-03T04:49:44.418Z,1024.76
2019-01-03T04:50:25.243Z,1024.77
2019-01-03T04:51:06.077Z,1024.77
2019-01-03T04:51:46.852Z,1024.76
2019-01-03T04:52:27.552Z,1024.77
2019-01-03T04:53:08.242Z,1024.78
2019-01-03T04:53:48.946Z,1024.78
2019-01-03T04:54:29.710Z,1024.78
2019-01-03T04:55:10.485Z,1024.79
2019-01-03T04:55:51.176Z,1024.81
2019-01-03T04:56:31.998Z,1024.8
2019-01-03T04:57:12.809Z,1024.84
2019-01-03T04:57:53.591Z,1024.84
2019-01-03T04:58:34.327Z,1024.83
2019-01-03T04:59:15.082Z,1024.87
2019-01-03T04:59:55.783Z,1024.87
2019-01-03T05:00:36.518Z,1024.88
2019-01-03T05:01:17.362Z,1024.89
2019-01-03T05:01:58.164Z,1024.87
2019-01-03T05:02:38.933Z,1024.88
2019-01-03T05:03:19.687Z,1024.88
2019-01-03T05:04:00.443Z,1024.88
2019-01-03T05:04:41.297Z,1024.83
2019-01-03T05:05:22.074Z,1024.86
2019-01-03T05:06:02.790Z,1024.87
2019-01-03T05:06:43.497Z,1024.83
2019-01-03T05:07:24.231Z,1024.85
2019-01-03T05:08:05.007Z,1024.88
2019-01-03T05:08:45.796Z,1024.91
2019-01-03T05:09:26.567Z,1024.91
2019-01-03T05:10:07.289Z,1024.93
2019-01-03T05:10:48.034Z,1024.94
2019-01-03T05:11:28.764Z,1024.93
2019-01-03T05:12:09.560Z,1024.95
2019-01-03T05:12:50.341Z,1024.96
2019-01-03T05:13:31.029Z,1024.94
2019-01-03T05:14:11.798Z,1024.94
2019-01-03T05:14:52.640Z,1024.9
2019-01-03T05:15:33.468Z,1024.9
2019-01-03T05:16:14.183Z,1024.92
2019-01-03T05:16:54.922Z,1024.92
2019-01-03T05:17:35.700Z,1024.93
2019-01-03T05:18:16.418Z,1024.93
2019-01-03T05:18:57.114Z,1024.92
2019-01-03T05:19:37.820Z,1024.91
2019-01-03T05:20:18.544Z,1024.93
2019-01-03T05:20:59.334Z,1024.98
2019-01-03T05:21:40.060Z,1025
2019-01-03T05:22:20.836Z,1024.98
2019-01-03T05:23:01.705Z,1024.93
2019-01-03T05:23:42.522Z,1024.98
2019-01-03T05:24:23.338Z,1024.99
2019-01-03T05:25:04.040Z,1024.96
2019-01-03T05:25:44.746Z,1024.96
2019-01-03T05:26:25.487Z,1024.99
2019-01-03T05:27:06.239Z,1024.97
2019-01-03T05:27:47.077Z,1024.96
2019-01-03T05:28:27.885Z,1024.95
2019-01-03T05:29:08.623Z,1024.95
2019-01-03T05:29:49.369Z,1024.96
2019-01-03T05:30:30.158Z,1024.92
2019-01-03T05:31:10.956Z,1024.98
2019-01-03T05:31:51.662Z,1024.98
2019-01-03T05:32:32.375Z,1024.96
2019-01-03T05:33:13.094Z,1024.94
2019-01-03T05:33:53.912Z,1024.98
2019-01-03T05:34:34.681Z,1024.98
2019-01-03T05:35:15.451Z,1025.01
2019-01-03T05:35:56.150Z,1024.97
2019-01-03T05:36:36.894Z,1025
2019-01-03T05:37:17.586Z,1025.02
2019-01-03T05:37:58.316Z,1025.04
2019-01-03T05:38:39.088Z,1025
2019-01-03T05:39:19.827Z,1025.04
2019-01-03T05:40:00.590Z,1025.02
2019-01-03T05:40:41.430Z,1025.03
2019-01-03T05:41:22.242Z,1025.03
2019-01-03T05:42:03.080Z,1025.02
2019-01-03T05:42:43.804Z,1025.04
2019-01-03T05:43:24.543Z,1025.06
2019-01-03T05:44:05.239Z,1025.05
2019-01-03T05:44:46.044Z,1025.03
2019-01-03T05:45:26.792Z,1025.03
2019-01-03T05:46:07.567Z,1025.03
2019-01-03T05:46:48.352Z,1025.07
2019-01-03T05:47:29.087Z,1025.05
2019-01-03T05:48:09.936Z,1025.06
2019-01-03T05:48:50.650Z,1025.06
2019-01-03T05:49:31.374Z,1025.06
2019-01-03T05:50:12.152Z,1025.11
2019-01-03T05:50:52.879Z,1025.05
2019-01-03T05:51:33.680Z,1025.11
2019-01-03T05:52:14.434Z,1025.08
2019-01-03T05:52:55.175Z,1025.14
2019-01-03T05:53:35.972Z,1025.11
2019-01-03T05:54:16.716Z,1025.1
2019-01-03T05:54:57.560Z,1025.1
2019-01-03T05:55:38.280Z,1025.1
2019-01-03T05:56:19.028Z,1025.09
2019-01-03T05:56:59.821Z,1025.12
2019-01-03T05:57:40.511Z,1025.1
2019-01-03T05:58:21.222Z,1025.1
2019-01-03T05:59:02.013Z,1025.07
2019-01-03T05:59:42.708Z,1025.1
2019-01-03T06:00:23.531Z,1025.06
2019-01-03T06:01:04.334Z,1025.14
2019-01-03T06:01:45.061Z,1025.12
2019-01-03T06:02:25.764Z,1025.12
2019-01-03T06:03:06.552Z,1025.13
2019-01-03T06:03:47.291Z,1025.16
2019-01-03T06:04:28.086Z,1025.16
2019-01-03T06:05:08.792Z,1025.15
2019-01-03T06:05:49.522Z,1025.13
2019-01-03T06:06:30.317Z,1025.15
2019-01-03T06:07:11.082Z,1025.16
2019-01-03T06:07:51.889Z,1025.17
2019-01-03T06:08:32.594Z,1025.16
2019-01-03T06:09:13.353Z,1025.18
2019-01-03T06:09:54.127Z,1025.17
2019-01-03T06:10:34.864Z,1025.18
2019-01-03T06:11:15.580Z,1025.19
2019-01-03T06:11:56.298Z,1025.19
2019-01-03T06:12:37.033Z,1025.17
2019-01-03T06:13:17.836Z,1025.21
2019-01-03T06:13:58.575Z,1025.2
2019-01-03T06:14:39.295Z,1025.21
2019-01-03T06:15:20.047Z,1025.26
2019-01-03T06:16:00.852Z,1025.25
2019-01-03T06:16:41.689Z,1025.28
2019-01-03T06:17:22.402Z,1025.3
2019-01-03T06:18:03.127Z,1025.28
2019-01-03T06:18:43.847Z,1025.3
2019-01-03T06:19:24.578Z,1025.36
2019-01-03T06:20:05.367Z,1025.35
2019-01-03T06:20:46.144Z,1025.37
2019-01-03T06:21:26.911Z,1025.34
2019-01-03T06:22:07.634Z,1025.39
2019-01-03T06:22:48.434Z,1025.39
2019-01-03T06:23:29.197Z,1025.43
2019-01-03T06:24:09.974Z,1025.37
2019-01-03T06:24:50.727Z,1025.36
2019-01-03T06:25:31.456Z,1025.37
2019-01-03T06:26:12.240Z,1025.33
2019-01-03T06:26:53.019Z,1025.43
2019-01-03T06:27:33.741Z,1025.39
2019-01-03T06:28:14.527Z,1025.45
2019-01-03T06:28:55.379Z,1025.41
2019-01-03T06:29:36.152Z,1025.44
2019-01-03T06:30:16.890Z,1025.46
2019-01-03T06:30:57.647Z,1025.45
2019-01-03T06:31:38.411Z,1025.48
2019-01-03T06:32:19.175Z,1025.49
2019-01-03T06:32:59.845Z,1025.47
2019-01-03T06:33:40.559Z,1025.47
2019-01-03T06:34:21.285Z,1025.5
2019-01-03T06:35:02.156Z,1025.49
2019-01-03T06:35:42.961Z,1025.51
2019-01-03T06:36:23.744Z,1025.5
2019-01-03T06:37:04.414Z,1025.5
2019-01-03T06:37:45.095Z,1025.53
2019-01-03T06:38:25.807Z,1025.52
2019-01-03T06:39:06.540Z,1025.51
2019-01-03T06:39:47.302Z,1025.51
2019-01-03T06:40:28.011Z,1025.47
2019-01-03T06:41:08.779Z,1025.51
2019-01-03T06:41:49.588Z,1025.5
2019-01-03T06:42:30.377Z,1025.47
2019-01-03T06:43:11.178Z,1025.47
2019-01-03T06:43:51.914Z,1025.54
2019-01-03T06:44:32.617Z,1025.51
2019-01-03T06:45:13.333Z,1025.49
2019-01-03T06:45:54.107Z,1025.5
2019-01-03T06:46:34.864Z,1025.52
2019-01-03T06:47:15.652Z,1025.52
2019-01-03T06:47:56.360Z,1025.54
2019-01-03T06:48:37.091Z,1025.54
2019-01-03T06:49:17.917Z,1025.57
2019-01-03T06:49:58.645Z,1025.57
2019-01-03T06:50:39.353Z,1025.58
2019-01-03T06:51:20.041Z,1025.6
2019-01-03T06:52:00.789Z,1025.6
2019-01-03T06:52:41.561Z,1025.6
2019-01-03T06:53:22.312Z,1025.62
2019-01-03T06:54:03.083Z,1025.65
2019-01-03T06:54:43.818Z,1025.64
2019-01-03T06:55:24.499Z,1025.64
2019-01-03T06:56:05.226Z,1025.67
2019-01-03T06:56:46.013Z,1025.66
2019-01-03T06:57:26.731Z,1025.67
2019-01-03T06:58:07.520Z,1025.69
2019-01-03T06:58:48.286Z,1025.7
2019-01-03T06:59:29.065Z,1025.74
2019-01-03T07:00:09.882Z,1025.75
2019-01-03T07:00:50.595Z,1025.78
2019-01-03T07:01:31.310Z,1025.77
2019-01-03T07:02:12.117Z,1025.8
2019-01-03T07:02:52.876Z,1025.82
2019-01-03T07:03:33.583Z,1025.81
2019-01-03T07:04:14.295Z,1025.84
2019-01-03T07:04:55.033Z,1025.83
2019-01-03T07:05:35.846Z,1025.87
2019-01-03T07:06:16.533Z,1025.84
2019-01-03T07:06:57.272Z,1025.88
2019-01-03T07:07:38.061Z,1025.85
2019-01-03T07:08:18.830Z,1025.89
2019-01-03T07:08:59.632Z,1025.89
2019-01-03T07:09:40.353Z,1025.94
2019-01-03T07:10:21.038Z,1025.9
2019-01-03T07:11:01.752Z,1025.94
2019-01-03T07:11:42.524Z,1025.91
2019-01-03T07:12:23.367Z,1025.95
2019-01-03T07:13:04.197Z,1025.99
2019-01-03T07:13:44.982Z,1025.94
2019-01-03T07:14:25.742Z,1025.97
2019-01-03T07:15:06.531Z,1025.95
2019-01-03T07:15:47.317Z,1025.95
2019-01-03T07:16:28.014Z,1025.99
2019-01-03T07:17:08.689Z,1025.99
2019-01-03T07:17:49.444Z,1026.02
2019-01-03T07:18:30.285Z,1026.06
2019-01-03T07:19:11.114Z,1026.07
2019-01-03T07:19:51.871Z,1026.05
2019-01-03T07:20:32.579Z,1026.1
2019-01-03T07:21:13.267Z,1026.09
2019-01-03T07:21:54.049Z,1026.1
2019-01-03T07:22:34.842Z,1026.11
2019-01-03T07:23:15.638Z,1026.08
2019-01-03T07:23:56.372Z,1026.12
2019-01-03T07:24:37.150Z,1026.14
2019-01-03T07:25:17.956Z,1026.11
2019-01-03T07:25:58.899Z,1026.12
2019-01-03T07:26:39.617Z,1026.15
2019-01-03T07:27:20.358Z,1026.13
2019-01-03T07:28:01.124Z,1026.17
2019-01-03T07:28:41.883Z,1026.14
2019-01-03T07:29:22.649Z,1026.17
2019-01-03T07:30:03.440Z,1026.15
2019-01-03T07:30:44.180Z,1026.19
2019-01-03T07:31:24.928Z,1026.2
2019-01-03T07:32:05.691Z,1026.17
2019-01-03T07:32:46.470Z,1026.24
2019-01-03T07:33:27.197Z,1026.28
2019-01-03T07:34:07.881Z,1026.27
2019-01-03T07:34:48.626Z,1026.28
2019-01-03T07:35:29.415Z,1026.3
2019-01-03T07:36:10.167Z,1026.3
2019-01-03T07:36:50.932Z,1026.32
2019-01-03T07:37:31.700Z,1026.37
2019-01-03T07:38:12.467Z,1026.36
2019-01-03T07:38:53.285Z,1026.37
2019-01-03T07:39:34.071Z,1026.36
2019-01-03T07:40:14.796Z,1026.42
2019-01-03T07:40:55.612Z,1026.43
2019-01-03T07:43:11.202Z,1026.37
2019-01-03T07:43:51.880Z,1026.38
2019-01-03T07:44:32.577Z,1026.38
2019-01-03T07:45:13.300Z,1026.42
2019-01-03T07:45:54.104Z,1026.38
2019-01-03T07:46:34.874Z,1026.42
2019-01-03T07:47:15.603Z,1026.41
2019-01-03T07:47:56.390Z,1026.42
2019-01-03T07:48:37.142Z,1026.46
2019-01-03T07:49:17.957Z,1026.41
2019-01-03T07:49:58.655Z,1026.47
2019-01-03T07:50:39.400Z,1026.47
2019-01-03T07:51:20.148Z,1026.47
2019-01-03T07:52:00.849Z,1026.44
2019-01-03T07:52:41.671Z,1026.53
2019-01-03T07:53:22.507Z,1026.48
2019-01-03T07:54:03.319Z,1026.5
2019-01-03T07:54:43.990Z,1026.52
2019-01-03T07:55:24.749Z,1026.54
2019-01-03T07:56:05.517Z,1026.56
2019-01-03T07:56:46.257Z,1026.56
2019-01-03T07:57:26.988Z,1026.59
2019-01-03T07:58:07.731Z,1026.55
2019-01-03T07:58:48.479Z,1026.59
2019-01-03T07:59:29.286Z,1026.58
2019-01-03T08:00:10.089Z,1026.6
2019-01-03T08:00:50.847Z,1026.56
2019-01-03T08:01:31.550Z,1026.61
2019-01-03T08:02:12.271Z,1026.64
2019-01-03T08:02:52.998Z,1026.61
2019-01-03T08:03:33.864Z,1026.66
2019-01-03T08:04:14.580Z,1026.66
2019-01-03T08:04:55.284Z,1026.67
2019-01-03T08:05:36.077Z,1026.67
2019-01-03T08:06:16.850Z,1026.69
2019-01-03T08:06:57.643Z,1026.71
2019-01-03T08:07:38.349Z,1026.73
2019-01-03T08:08:19.065Z,1026.72
2019-01-03T08:08:59.838Z,1026.78
2019-01-03T08:09:40.670Z,1026.76
2019-01-03T08:10:21.481Z,1026.8
2019-01-03T08:11:02.308Z,1026.83
2019-01-03T08:11:43.064Z,1026.79
2019-01-03T08:12:23.774Z,1026.81
2019-01-03T08:13:04.590Z,1026.81
2019-01-03T08:13:45.329Z,1026.79
2019-01-03T08:14:26.058Z,1026.82
2019-01-03T08:15:06.760Z,1026.84
2019-01-03T08:15:47.470Z,1026.8
2019-01-03T08:16:28.293Z,1026.86
2019-01-03T08:17:09.113Z,1026.85
2019-01-03T08:17:49.840Z,1026.89
2019-01-03T08:18:30.655Z,1026.89
2019-01-03T08:19:11.459Z,1026.95
2019-01-03T08:19:52.230Z,1026.97